createdAt,value
2019-06-10T00:00:55.341Z,1004.40
2019-06-10T00:01:55.486Z,1004.43
2019-06-10T00:02:55.568Z,1004.40
2019-06-10T00:03:55.515Z,1004.40
2019-06-10T00:04:55.570Z,1004.44
2019-06-10T00:05:55.664Z,1004.45
2019-06-10T00:06:55.771Z,1004.42
2019-06-10T00:07:55.823Z,1004.43
2019-06-10T00:08:56.030Z,1004.41
2019-06-10T00:09:56.167Z,1004.41
2019-06-10T00:10:56.187Z,1004.40
2019-06-10T00:11:56.097Z,1004.41
2019-06-10T00:12:55.450Z,1004.42
2019-06-10T00:13:54.999Z,1004.40
2019-06-10T00:14:54.993Z,1004.39
2019-06-10T00:15:55.027Z,1004.41
2019-06-10T00:16:54.989Z,1004.34
2019-06-10T00:18:16.263Z,1004.30
2019-06-10T00:18:55.971Z,1004.30
2019-06-10T00:19:54.919Z,1004.26
2019-06-10T00:20:54.953Z,1004.31
2019-06-10T00:21:54.903Z,1004.26
2019-06-10T00:22:54.919Z,1004.20
2019-06-10T00:23:54.884Z,1004.18
2019-06-10T00:24:54.872Z,1004.18
2019-06-10T00:25:54.859Z,1004.18
2019-06-10T00:26:54.931Z,1004.19
2019-06-10T00:27:54.861Z,1004.12
2019-06-10T00:28:54.900Z,1004.08
2019-06-10T00:29:54.810Z,1004.13
2019-06-10T00:30:54.801Z,1004.07
2019-06-10T00:31:54.821Z,1004.08
2019-06-10T00:32:54.776Z,1004.09
2019-06-10T00:33:54.759Z,1004.09
2019-06-10T00:34:54.800Z,1004.12
2019-06-10T00:35:54.746Z,1004.18
2019-06-10T00:36:54.772Z,1004.24
2019-06-10T00:37:54.770Z,1004.27
2019-06-10T00:38:54.725Z,1004.15
2019-06-10T00:39:54.703Z,1004.11
2019-06-10T00:40:54.692Z,1004.20
2019-06-10T00:41:54.681Z,1004.20
2019-06-10T00:42:54.664Z,1004.22
2019-06-10T00:43:54.711Z,1004.13
2019-06-10T00:44:54.694Z,1004.10
2019-06-10T00:45:54.665Z,1004.08
2019-06-10T00:46:54.639Z,1003.98
2019-06-10T00:48:07.594Z,1004.06
2019-06-10T00:48:55.630Z,1004.04
2019-06-10T00:49:54.589Z,1004.02
2019-06-10T00:50:54.597Z,1004.02
2019-06-10T00:51:54.582Z,1004.01
2019-06-10T00:52:54.648Z,1004.03
2019-06-10T00:53:54.578Z,1003.98
2019-06-10T00:54:54.560Z,1003.97
2019-06-10T00:55:54.540Z,1003.97
2019-06-10T00:56:54.531Z,1003.97
2019-06-10T00:57:54.527Z,1003.94
2019-06-10T00:58:54.633Z,1004.00
2019-06-10T00:59:54.486Z,1004.02
2019-06-10T01:00:54.484Z,1003.97
2019-06-10T01:01:54.463Z,1003.98
2019-06-10T01:02:54.450Z,1003.91
2019-06-10T01:03:54.474Z,1003.96
2019-06-10T01:04:54.440Z,1003.93
2019-06-10T01:05:54.427Z,1004.00
2019-06-10T01:06:54.405Z,1003.96
2019-06-10T01:07:54.400Z,1004.00
2019-06-10T01:08:54.427Z,1003.96
2019-06-10T01:09:54.413Z,1003.96
2019-06-10T01:10:54.379Z,1004.04
2019-06-10T01:11:54.400Z,1004.08
2019-06-10T01:12:54.333Z,1004.03
2019-06-10T01:13:54.331Z,1003.99
2019-06-10T01:14:54.390Z,1004.08
2019-06-10T01:15:54.333Z,1004.02
2019-06-10T01:16:54.310Z,1004.04
2019-06-10T01:17:54.326Z,1004.01
2019-06-10T01:18:54.315Z,1004.01
2019-06-10T01:19:54.300Z,1004.06
2019-06-10T01:20:54.273Z,1004.01
2019-06-10T01:21:54.264Z,1004.00
2019-06-10T01:22:54.249Z,1004.03
2019-06-10T01:23:54.227Z,1003.99
2019-06-10T01:24:54.285Z,1003.98
2019-06-10T01:25:54.199Z,1003.93
2019-06-10T01:26:54.198Z,1003.95
2019-06-10T01:27:54.184Z,1003.91
2019-06-10T01:28:54.172Z,1003.91
2019-06-10T01:29:54.232Z,1003.91
2019-06-10T01:30:54.270Z,1003.90
2019-06-10T01:31:54.180Z,1003.86
2019-06-10T01:32:54.138Z,1003.79
2019-06-10T01:33:54.122Z,1003.85
2019-06-10T01:34:54.114Z,1003.87
2019-06-10T01:35:54.100Z,1003.88
2019-06-10T01:36:54.106Z,1003.88
2019-06-10T01:37:54.087Z,1003.93
2019-06-10T01:38:54.076Z,1003.90
2019-06-10T01:39:54.065Z,1003.92
2019-06-10T01:40:54.092Z,1003.87
2019-06-10T01:41:54.038Z,1003.87
2019-06-10T01:42:54.026Z,1003.85
2019-06-10T01:43:54.014Z,1003.87
2019-06-10T01:44:54.099Z,1003.84
2019-06-10T01:45:54.031Z,1003.81
2019-06-10T01:46:53.973Z,1003.77
2019-06-10T01:47:53.958Z,1003.74
2019-06-10T01:48:53.985Z,1003.81
2019-06-10T01:49:53.981Z,1003.74
2019-06-10T01:50:53.968Z,1003.71
2019-06-10T01:51:53.915Z,1003.71
2019-06-10T01:52:53.909Z,1003.70
2019-06-10T01:53:53.902Z,1003.67
2019-06-10T01:54:53.909Z,1003.69
2019-06-10T01:55:53.922Z,1003.68
2019-06-10T01:56:53.874Z,1003.70
2019-06-10T01:57:53.874Z,1003.69
2019-06-10T01:58:53.898Z,1003.70
2019-06-10T01:59:53.838Z,1003.75
2019-06-10T02:00:53.906Z,1003.69
2019-06-10T02:01:53.851Z,1003.70
2019-06-10T02:02:53.828Z,1003.76
2019-06-10T02:03:53.787Z,1003.70
2019-06-10T02:04:53.804Z,1003.73
2019-06-10T02:05:53.788Z,1003.74
2019-06-10T02:06:53.765Z,1003.69
2019-06-10T02:07:53.855Z,1003.68
2019-06-10T02:08:53.745Z,1003.70
2019-06-10T02:09:53.735Z,1003.72
2019-06-10T02:10:53.753Z,1003.73
2019-06-10T02:11:53.735Z,1003.74
2019-06-10T02:12:53.726Z,1003.78
2019-06-10T02:13:53.683Z,1003.76
2019-06-10T02:14:53.670Z,1003.82
2019-06-10T02:15:53.696Z,1003.81
2019-06-10T02:16:53.685Z,1003.89
2019-06-10T02:17:53.643Z,1003.91
2019-06-10T02:19:00.273Z,1003.93
2019-06-10T02:19:54.630Z,1003.89
2019-06-10T02:20:53.750Z,1003.88
2019-06-10T02:21:53.640Z,1003.88
2019-06-10T02:22:53.634Z,1003.88
2019-06-10T02:23:53.574Z,1003.90
2019-06-10T02:24:53.574Z,1003.88
2019-06-10T02:25:53.561Z,1003.95
2019-06-10T02:26:53.688Z,1003.87
2019-06-10T02:27:53.547Z,1003.79
2019-06-10T02:28:53.531Z,1003.76
2019-06-10T02:29:53.509Z,1003.84
2019-06-10T02:30:55.759Z,1003.81
2019-06-10T02:31:53.525Z,1003.91
2019-06-10T02:32:53.515Z,1003.92
2019-06-10T02:33:53.510Z,1003.94
2019-06-10T02:35:08.174Z,1003.91
2019-06-10T02:35:54.518Z,1003.90
2019-06-10T02:36:53.856Z,1003.82
2019-06-10T02:37:54.087Z,1003.77
2019-06-10T02:38:54.127Z,1003.80
2019-06-10T02:39:54.146Z,1003.91
2019-06-10T02:40:54.010Z,1003.93
2019-06-10T02:41:53.708Z,1003.86
2019-06-10T02:42:54.089Z,1003.90
2019-06-10T02:43:53.566Z,1003.84
2019-06-10T02:44:54.075Z,1003.77
2019-06-10T02:45:53.348Z,1003.71
2019-06-10T02:46:54.385Z,1003.71
2019-06-10T02:47:53.509Z,1003.63
2019-06-10T02:48:54.404Z,1003.61
2019-06-10T02:50:02.526Z,1003.56
2019-06-10T02:50:54.501Z,1003.59
2019-06-10T02:51:53.850Z,1003.53
2019-06-10T02:52:53.272Z,1003.57
2019-06-10T02:53:53.830Z,1003.63
2019-06-10T02:54:53.807Z,1003.64
2019-06-10T02:55:54.024Z,1003.63
2019-06-10T02:56:53.979Z,1003.62
2019-06-10T02:57:53.443Z,1003.61
2019-06-10T02:58:53.615Z,1003.61
2019-06-10T02:59:54.367Z,1003.60
2019-06-10T03:00:54.589Z,1003.65
2019-06-10T03:01:53.690Z,1003.65
2019-06-10T03:02:53.199Z,1003.66
2019-06-10T03:03:54.392Z,1003.66
2019-06-10T03:04:53.772Z,1003.63
2019-06-10T03:05:53.849Z,1003.63
2019-06-10T03:06:54.258Z,1003.65
2019-06-10T03:07:53.422Z,1003.69
2019-06-10T03:08:55.017Z,1003.70
2019-06-10T03:09:53.913Z,1003.76
2019-06-10T03:10:54.823Z,1003.71
2019-06-10T03:11:53.596Z,1003.74
2019-06-10T03:12:53.056Z,1003.81
2019-06-10T03:13:53.160Z,1003.79
2019-06-10T03:14:53.033Z,1003.75
2019-06-10T03:15:53.052Z,1003.74
2019-06-10T03:16:53.142Z,1003.74
2019-06-10T03:17:53.018Z,1003.80
2019-06-10T03:18:52.981Z,1003.76
2019-06-10T03:19:53.506Z,1003.79
2019-06-10T03:20:52.983Z,1003.72
2019-06-10T03:21:52.987Z,1003.67
2019-06-10T03:22:52.952Z,1003.63
2019-06-10T03:23:53.162Z,1003.70
2019-06-10T03:24:52.940Z,1003.67
2019-06-10T03:25:52.927Z,1003.69
2019-06-10T03:26:52.893Z,1003.70
2019-06-10T03:27:52.920Z,1003.66
2019-06-10T03:28:52.873Z,1003.67
2019-06-10T03:29:52.877Z,1003.71
2019-06-10T03:30:58.144Z,1003.66
2019-06-10T03:31:55.319Z,1003.71
2019-06-10T03:32:55.644Z,1003.72
2019-06-10T03:33:54.203Z,1003.67
2019-06-10T03:34:54.929Z,1003.72
2019-06-10T03:35:52.807Z,1003.76
2019-06-10T03:36:53.531Z,1003.77
2019-06-10T03:37:52.860Z,1003.73
2019-06-10T03:38:53.695Z,1003.76
2019-06-10T03:39:53.153Z,1003.73
2019-06-10T03:40:52.772Z,1003.63
2019-06-10T03:41:52.856Z,1003.59
2019-06-10T03:42:52.805Z,1003.62
2019-06-10T03:43:53.095Z,1003.59
2019-06-10T03:44:52.690Z,1003.66
2019-06-10T03:45:53.170Z,1003.58
2019-06-10T03:46:52.743Z,1003.59
2019-06-10T03:47:52.811Z,1003.57
2019-06-10T03:48:52.777Z,1003.49
2019-06-10T03:49:56.009Z,1003.48
2019-06-10T03:50:52.650Z,1003.42
2019-06-10T03:51:53.028Z,1003.39
2019-06-10T03:52:52.693Z,1003.36
2019-06-10T03:53:53.098Z,1003.28
2019-06-10T03:54:52.640Z,1003.28
2019-06-10T03:55:52.705Z,1003.24
2019-06-10T03:56:52.559Z,1003.20
2019-06-10T03:57:52.711Z,1003.08
2019-06-10T03:58:52.642Z,1003.06
2019-06-10T03:59:52.830Z,1002.95
2019-06-10T04:00:52.526Z,1002.97
2019-06-10T04:01:53.032Z,1002.94
2019-06-10T04:02:53.214Z,1002.91
2019-06-10T04:03:53.063Z,1002.94
2019-06-10T04:04:52.503Z,1002.90
2019-06-10T04:05:52.756Z,1003.00
2019-06-10T04:06:53.147Z,1003.06
2019-06-10T04:07:52.726Z,1003.13
2019-06-10T04:08:52.459Z,1003.19
2019-06-10T04:09:52.662Z,1003.25
2019-06-10T04:10:52.423Z,1003.27
2019-06-10T04:11:53.288Z,1003.24
2019-06-10T04:12:52.480Z,1003.19
2019-06-10T04:13:53.509Z,1003.20
2019-06-10T04:14:52.372Z,1003.27
2019-06-10T04:15:53.460Z,1003.22
2019-06-10T04:16:52.604Z,1003.20
2019-06-10T04:17:53.107Z,1003.13
2019-06-10T04:18:53.412Z,1003.09
2019-06-10T04:20:07.527Z,1003.12
2019-06-10T04:20:53.302Z,1003.10
2019-06-10T04:21:53.166Z,1003.13
2019-06-10T04:22:52.406Z,1003.17
2019-06-10T04:23:52.792Z,1003.19
2019-06-10T04:24:52.274Z,1003.22
2019-06-10T04:25:52.728Z,1003.20
2019-06-10T04:26:52.361Z,1003.31
2019-06-10T04:27:52.483Z,1003.41
2019-06-10T04:28:53.014Z,1003.38
2019-06-10T04:29:52.524Z,1003.38
2019-06-10T04:30:53.575Z,1003.43
2019-06-10T04:31:53.555Z,1003.44
2019-06-10T04:32:52.906Z,1003.50
2019-06-10T04:33:52.435Z,1003.50
2019-06-10T04:34:52.991Z,1003.49
2019-06-10T04:35:52.145Z,1003.47
2019-06-10T04:36:52.579Z,1003.46
2019-06-10T04:37:52.169Z,1003.44
2019-06-10T04:38:52.538Z,1003.45
2019-06-10T04:39:53.006Z,1003.47
2019-06-10T04:40:52.552Z,1003.47
2019-06-10T04:41:53.060Z,1003.44
2019-06-10T04:42:52.556Z,1003.41
2019-06-10T04:43:53.230Z,1003.41
2019-06-10T04:44:52.580Z,1003.42
2019-06-10T04:45:52.824Z,1003.41
2019-06-10T04:46:52.149Z,1003.39
2019-06-10T04:47:52.500Z,1003.37
2019-06-10T04:48:53.184Z,1003.40
2019-06-10T04:49:52.317Z,1003.36
2019-06-10T04:50:53.410Z,1003.36
2019-06-10T04:51:52.442Z,1003.34
2019-06-10T04:52:52.887Z,1003.30
2019-06-10T04:53:52.521Z,1003.31
2019-06-10T04:54:52.728Z,1003.23
2019-06-10T04:55:52.261Z,1003.19
2019-06-10T04:56:52.879Z,1003.22
2019-06-10T04:57:52.182Z,1003.20
2019-06-10T04:58:52.487Z,1003.32
2019-06-10T04:59:53.008Z,1003.25
2019-06-10T05:00:52.424Z,1003.27
2019-06-10T05:01:53.011Z,1003.27
2019-06-10T05:02:52.289Z,1003.41
2019-06-10T05:03:52.633Z,1003.39
2019-06-10T05:04:53.164Z,1003.41
2019-06-10T05:05:52.633Z,1003.36
2019-06-10T05:06:52.678Z,1003.32
2019-06-10T05:07:52.113Z,1003.35
2019-06-10T05:08:53.760Z,1003.32
2019-06-10T05:09:52.500Z,1003.29
2019-06-10T05:10:52.940Z,1003.26
2019-06-10T05:11:52.264Z,1003.21
2019-06-10T05:12:52.598Z,1003.26
2019-06-10T05:13:53.240Z,1003.29
2019-06-10T05:14:52.650Z,1003.25
2019-06-10T05:15:52.685Z,1003.31
2019-06-10T05:16:54.154Z,1003.38
2019-06-10T05:17:52.705Z,1003.37
2019-06-10T05:18:54.603Z,1003.40
2019-06-10T05:19:53.058Z,1003.42
2019-06-10T05:20:58.257Z,1003.48
2019-06-10T05:21:52.646Z,1003.49
2019-06-10T05:22:52.857Z,1003.53
2019-06-10T05:23:52.185Z,1003.58
2019-06-10T05:24:52.713Z,1003.49
2019-06-10T05:25:52.628Z,1003.55
2019-06-10T05:26:52.692Z,1003.62
2019-06-10T05:27:52.240Z,1003.73
2019-06-10T05:28:52.428Z,1003.72
2019-06-10T05:29:52.705Z,1003.70
2019-06-10T05:30:53.177Z,1003.72
2019-06-10T05:31:52.279Z,1003.69
2019-06-10T05:32:52.361Z,1003.69
2019-06-10T05:33:52.995Z,1003.68
2019-06-10T05:34:52.789Z,1003.66
2019-06-10T05:35:52.945Z,1003.68
2019-06-10T05:36:52.572Z,1003.66
2019-06-10T05:37:52.763Z,1003.62
2019-06-10T05:38:52.623Z,1003.59
2019-06-10T05:39:52.654Z,1003.55
2019-06-10T05:40:52.126Z,1003.57
2019-06-10T05:41:53.056Z,1003.52
2019-06-10T05:42:52.851Z,1003.60
2019-06-10T05:43:52.327Z,1003.54
2019-06-10T05:44:52.454Z,1003.56
2019-06-10T05:45:52.993Z,1003.60
2019-06-10T05:46:52.836Z,1003.60
2019-06-10T05:47:53.090Z,1003.58
2019-06-10T05:48:52.602Z,1003.57
2019-06-10T05:49:52.916Z,1003.53
2019-06-10T05:51:00.133Z,1003.57
2019-06-10T05:51:52.755Z,1003.47
2019-06-10T05:52:52.063Z,1003.51
2019-06-10T05:53:52.835Z,1003.52
2019-06-10T05:54:52.179Z,1003.56
2019-06-10T05:55:52.964Z,1003.55
2019-06-10T05:56:52.174Z,1003.61
2019-06-10T05:57:53.270Z,1003.56
2019-06-10T05:58:52.442Z,1003.53
2019-06-10T05:59:52.283Z,1003.48
2019-06-10T06:00:53.161Z,1003.53
2019-06-10T06:01:53.878Z,1003.50
2019-06-10T06:02:52.297Z,1003.53
2019-06-10T06:03:52.925Z,1003.55
2019-06-10T06:04:53.089Z,1003.62
2019-06-10T06:05:52.507Z,1003.67
2019-06-10T06:06:53.149Z,1003.69
2019-06-10T06:08:02.321Z,1003.73
2019-06-10T06:08:53.419Z,1003.67
2019-06-10T06:09:53.174Z,1003.75
2019-06-10T06:10:52.759Z,1003.73
2019-06-10T06:11:52.413Z,1003.76
2019-06-10T06:12:52.649Z,1003.69
2019-06-10T06:13:52.206Z,1003.68
2019-06-10T06:14:52.784Z,1003.69
2019-06-10T06:15:52.821Z,1003.65
2019-06-10T06:16:53.209Z,1003.77
2019-06-10T06:18:03.996Z,1003.73
2019-06-10T06:18:52.645Z,1003.73
2019-06-10T06:19:53.317Z,1003.69
2019-06-10T06:20:52.613Z,1003.73
2019-06-10T06:21:53.009Z,1003.63
2019-06-10T06:22:52.250Z,1003.59
2019-06-10T06:23:52.849Z,1003.59
2019-06-10T06:24:52.260Z,1003.55
2019-06-10T06:25:53.183Z,1003.61
2019-06-10T06:26:53.279Z,1003.61
2019-06-10T06:27:52.455Z,1003.64
2019-06-10T06:28:53.301Z,1003.67
2019-06-10T06:29:52.452Z,1003.63
2019-06-10T06:30:52.820Z,1003.67
2019-06-10T06:31:52.294Z,1003.65
2019-06-10T06:32:53.093Z,1003.65
2019-06-10T06:33:52.716Z,1003.69
2019-06-10T06:34:52.681Z,1003.63
2019-06-10T06:35:53.892Z,1003.66
2019-06-10T06:36:52.880Z,1003.64
2019-06-10T06:37:53.972Z,1003.65
2019-06-10T06:38:52.883Z,1003.66
2019-06-10T06:39:52.365Z,1003.65
2019-06-10T06:40:53.741Z,1003.61
2019-06-10T06:41:52.750Z,1003.56
2019-06-10T06:42:52.546Z,1003.52
2019-06-10T06:43:52.793Z,1003.51
2019-06-10T06:44:52.523Z,1003.45
2019-06-10T06:45:52.984Z,1003.45
2019-06-10T06:46:53.091Z,1003.45
2019-06-10T06:47:52.743Z,1003.48
2019-06-10T06:48:52.971Z,1003.49
2019-06-10T06:49:52.946Z,1003.41
2019-06-10T06:51:01.681Z,1003.40
2019-06-10T06:51:56.207Z,1003.47
2019-06-10T06:53:18.721Z,1003.47
2019-06-10T06:53:55.452Z,1003.45
2019-06-10T06:54:52.901Z,1003.48
2019-06-10T06:55:53.541Z,1003.51
2019-06-10T06:56:53.393Z,1003.44
2019-06-10T06:57:52.912Z,1003.43
2019-06-10T06:58:52.435Z,1003.49
2019-06-10T06:59:52.668Z,1003.53
2019-06-10T07:01:01.410Z,1003.57
2019-06-10T07:01:52.487Z,1003.53
2019-06-10T07:02:52.813Z,1003.53
2019-06-10T07:03:53.287Z,1003.58
2019-06-10T07:04:52.597Z,1003.47
2019-06-10T07:05:52.906Z,1003.49
2019-06-10T07:06:54.975Z,1003.39
2019-06-10T07:07:52.714Z,1003.26
2019-06-10T07:09:03.402Z,1003.33
2019-06-10T07:09:52.678Z,1003.36
2019-06-10T07:10:52.225Z,1003.36
2019-06-10T07:11:52.852Z,1003.37
2019-06-10T07:12:52.315Z,1003.40
2019-06-10T07:13:53.325Z,1003.47
2019-06-10T07:14:52.484Z,1003.42
2019-06-10T07:15:53.288Z,1003.46
2019-06-10T07:16:52.815Z,1003.43
2019-06-10T07:17:52.545Z,1003.45
2019-06-10T07:18:50.636Z,1003.41
2019-06-10T07:19:52.883Z,1003.49
2019-06-10T07:20:50.545Z,1003.45
2019-06-10T07:22:05.591Z,1003.37
2019-06-10T07:22:53.338Z,1003.37
2019-06-10T07:23:52.600Z,1003.32
2019-06-10T07:24:52.636Z,1003.27
2019-06-10T07:25:50.352Z,1003.26
2019-06-10T07:26:54.308Z,1003.25
2019-06-10T07:27:52.581Z,1003.28
2019-06-10T07:28:50.281Z,1003.24
2019-06-10T07:29:52.747Z,1003.20
2019-06-10T07:30:52.656Z,1003.25
2019-06-10T07:31:53.591Z,1003.27
2019-06-10T07:32:52.683Z,1003.18
2019-06-10T07:33:52.365Z,1003.19
2019-06-10T07:34:52.321Z,1003.24
2019-06-10T07:35:52.355Z,1003.30
2019-06-10T07:36:52.153Z,1003.30
2019-06-10T07:37:52.305Z,1003.27
2019-06-10T07:38:53.572Z,1003.30
2019-06-10T07:39:52.190Z,1003.28
2019-06-10T07:40:50.145Z,1003.26
2019-06-10T07:41:52.669Z,1003.25
2019-06-10T07:42:50.170Z,1003.29
2019-06-10T07:43:52.585Z,1003.31
2019-06-10T07:44:50.119Z,1003.33
2019-06-10T07:45:53.208Z,1003.45
2019-06-10T07:46:50.059Z,1003.44
2019-06-10T07:47:52.160Z,1003.39
2019-06-10T07:48:53.540Z,1003.41
2019-06-10T07:49:52.251Z,1003.39
2019-06-10T07:50:49.998Z,1003.36
2019-06-10T07:51:52.212Z,1003.30
2019-06-10T07:52:49.973Z,1003.32
2019-06-10T07:53:52.309Z,1003.19
2019-06-10T07:54:49.938Z,1003.16
2019-06-10T07:55:49.945Z,1003.17
2019-06-10T07:56:50.656Z,1003.19
2019-06-10T07:57:49.945Z,1003.19
2019-06-10T07:58:52.536Z,1003.08
2019-06-10T07:59:52.103Z,1003.20
2019-06-10T08:00:49.879Z,1003.19
2019-06-10T08:01:52.481Z,1003.23
2019-06-10T08:02:52.999Z,1003.25
2019-06-10T08:03:52.394Z,1003.21
2019-06-10T08:04:49.865Z,1003.18
2019-06-10T08:05:52.374Z,1003.14
2019-06-10T08:06:52.402Z,1003.15
2019-06-10T08:07:49.813Z,1003.21
2019-06-10T08:08:49.782Z,1003.17
2019-06-10T08:09:49.858Z,1003.14
2019-06-10T08:10:49.851Z,1003.09
2019-06-10T08:11:49.801Z,1003.16
2019-06-10T08:12:49.773Z,1003.14
2019-06-10T08:13:49.736Z,1003.24
2019-06-10T08:14:49.734Z,1003.26
2019-06-10T08:15:49.750Z,1003.28
2019-06-10T08:16:49.723Z,1003.23
2019-06-10T08:17:49.685Z,1003.22
2019-06-10T08:19:16.092Z,1003.22
2019-06-10T08:19:53.846Z,1003.30
2019-06-10T08:20:49.724Z,1003.21
2019-06-10T08:21:49.839Z,1003.26
2019-06-10T08:22:54.385Z,1003.26
2019-06-10T08:23:50.714Z,1003.20
2019-06-10T08:24:49.618Z,1003.15
2019-06-10T08:25:54.659Z,1003.05
2019-06-10T08:26:52.922Z,1003.03
2019-06-10T08:27:49.593Z,1003.09
2019-06-10T08:28:49.701Z,1003.07
2019-06-10T08:29:58.562Z,1003.12
2019-06-10T08:30:52.959Z,1003.08
2019-06-10T08:31:50.127Z,1003.01
2019-06-10T08:32:53.290Z,1003.03
2019-06-10T08:33:53.120Z,1003.00
2019-06-10T08:34:49.510Z,1003.04
2019-06-10T08:35:57.363Z,1002.99
2019-06-10T08:36:53.626Z,1002.95
2019-06-10T08:37:49.487Z,1002.99
2019-06-10T08:38:49.455Z,1002.93
2019-06-10T08:39:49.464Z,1002.93
2019-06-10T08:40:49.450Z,1002.91
2019-06-10T08:41:49.458Z,1002.91
2019-06-10T08:42:49.446Z,1002.87
2019-06-10T08:43:49.439Z,1002.93
2019-06-10T08:44:49.417Z,1002.88
2019-06-10T08:45:49.396Z,1002.93
2019-06-10T08:46:49.403Z,1002.86
2019-06-10T08:47:49.375Z,1002.89
2019-06-10T08:48:49.597Z,1002.95
2019-06-10T08:49:49.394Z,1002.98
2019-06-10T08:50:50.194Z,1002.96
2019-06-10T08:51:50.238Z,1002.99
2019-06-10T08:53:05.657Z,1003.05
2019-06-10T08:53:52.937Z,1003.07
2019-06-10T08:54:53.638Z,1003.05
2019-06-10T08:55:50.857Z,1003.14
2019-06-10T08:56:50.894Z,1003.01
2019-06-10T08:57:51.635Z,1003.05
2019-06-10T08:58:50.829Z,1003.05
2019-06-10T08:59:49.411Z,1002.98
2019-06-10T09:00:49.599Z,1002.92
2019-06-10T09:01:55.712Z,1003.00
2019-06-10T09:02:53.648Z,1002.97
2019-06-10T09:03:50.492Z,1002.98
2019-06-10T09:04:50.474Z,1003.01
2019-06-10T09:05:50.966Z,1002.95
2019-06-10T09:06:50.818Z,1003.01
2019-06-10T09:07:51.259Z,1002.96
2019-06-10T09:08:53.872Z,1002.97
2019-06-10T09:09:51.101Z,1002.91
2019-06-10T09:10:51.579Z,1002.92
2019-06-10T09:11:51.307Z,1002.93
2019-06-10T09:12:54.195Z,1002.93
2019-06-10T09:13:50.371Z,1003.00
2019-06-10T09:14:50.634Z,1002.99
2019-06-10T09:16:07.156Z,1002.95
2019-06-10T09:16:51.461Z,1002.95
2019-06-10T09:17:52.080Z,1002.91
2019-06-10T09:18:52.062Z,1002.95
2019-06-10T09:19:51.231Z,1002.93
2019-06-10T09:20:52.664Z,1002.96
2019-06-10T09:21:53.375Z,1002.98
2019-06-10T09:23:11.209Z,1002.94
2019-06-10T09:23:56.639Z,1002.85
2019-06-10T09:24:53.131Z,1002.88
2019-06-10T09:25:54.500Z,1002.91
2019-06-10T09:26:51.393Z,1002.83
2019-06-10T09:27:51.835Z,1002.84
2019-06-10T09:28:52.733Z,1002.86
2019-06-10T09:29:54.783Z,1002.75
2019-06-10T09:30:54.052Z,1002.79
2019-06-10T09:31:53.269Z,1002.73
2019-06-10T09:32:53.857Z,1002.71
2019-06-10T09:33:53.307Z,1002.67
2019-06-10T09:34:54.744Z,1002.64
2019-06-10T09:35:52.829Z,1002.63
2019-06-10T09:36:56.247Z,1002.52
2019-06-10T09:37:51.666Z,1002.61
2019-06-10T09:38:52.773Z,1002.58
2019-06-10T09:39:58.034Z,1002.54
2019-06-10T09:40:57.631Z,1002.48
2019-06-10T09:41:59.724Z,1002.50
2019-06-10T09:42:53.004Z,1002.50
2019-06-10T09:43:52.955Z,1002.57
2019-06-10T09:44:51.774Z,1002.47
2019-06-10T09:45:51.352Z,1002.50
2019-06-10T09:46:52.057Z,1002.52
2019-06-10T09:47:55.537Z,1002.53
2019-06-10T09:48:53.603Z,1002.54
2019-06-10T09:49:51.410Z,1002.58
2019-06-10T09:50:56.636Z,1002.62
2019-06-10T09:51:52.765Z,1002.63
2019-06-10T09:52:53.372Z,1002.62
2019-06-10T09:53:56.349Z,1002.62
2019-06-10T09:54:55.710Z,1002.64
2019-06-10T09:55:52.458Z,1002.59
2019-06-10T09:56:50.408Z,1002.52
2019-06-10T09:57:53.179Z,1002.62
2019-06-10T09:58:51.163Z,1002.57
2019-06-10T09:59:54.022Z,1002.54
2019-06-10T10:00:53.574Z,1002.49
2019-06-10T10:01:53.559Z,1002.51
2019-06-10T10:02:52.067Z,1002.50
2019-06-10T10:03:55.001Z,1002.50
2019-06-10T10:04:54.798Z,1002.50
2019-06-10T10:06:06.315Z,1002.42
2019-06-10T10:06:54.368Z,1002.51
2019-06-10T10:07:51.941Z,1002.46
2019-06-10T10:08:53.868Z,1002.43
2019-06-10T10:09:51.897Z,1002.39
2019-06-10T10:10:51.974Z,1002.31
2019-06-10T10:11:51.464Z,1002.36
2019-06-10T10:12:51.225Z,1002.41
2019-06-10T10:13:49.911Z,1002.47
2019-06-10T10:14:50.211Z,1002.39
2019-06-10T10:15:49.687Z,1002.39
2019-06-10T10:16:52.812Z,1002.39
2019-06-10T10:17:49.941Z,1002.37
2019-06-10T10:18:52.098Z,1002.34
2019-06-10T10:19:50.326Z,1002.30
2019-06-10T10:20:49.921Z,1002.31
2019-06-10T10:21:51.224Z,1002.29
2019-06-10T10:22:50.601Z,1002.26
2019-06-10T10:23:56.539Z,1002.28
2019-06-10T10:24:49.387Z,1002.27
2019-06-10T10:25:49.657Z,1002.20
2019-06-10T10:26:50.875Z,1002.26
2019-06-10T10:27:51.253Z,1002.29
2019-06-10T10:28:51.804Z,1002.18
2019-06-10T10:29:50.024Z,1002.19
2019-06-10T10:30:50.511Z,1002.16
2019-06-10T10:31:50.698Z,1002.19
2019-06-10T10:32:50.460Z,1002.24
2019-06-10T10:33:48.511Z,1002.19
2019-06-10T10:34:49.845Z,1002.28
2019-06-10T10:35:49.297Z,1002.22
2019-06-10T10:36:48.770Z,1002.17
2019-06-10T10:37:48.531Z,1002.16
2019-06-10T10:38:48.849Z,1002.07
2019-06-10T10:39:49.069Z,1002.06
2019-06-10T10:40:50.332Z,1002.04
2019-06-10T10:41:48.697Z,1002.00
2019-06-10T10:42:53.950Z,1002.01
2019-06-10T10:43:51.353Z,1001.92
2019-06-10T10:44:51.239Z,1001.92
2019-06-10T10:45:51.812Z,1001.86
2019-06-10T10:46:49.316Z,1001.82
2019-06-10T10:47:49.038Z,1001.82
2019-06-10T10:48:49.004Z,1001.85
2019-06-10T10:49:49.101Z,1001.80
2019-06-10T10:50:49.186Z,1001.77
2019-06-10T10:51:49.003Z,1001.76
2019-06-10T10:52:48.597Z,1001.66
2019-06-10T10:53:56.236Z,1001.66
2019-06-10T10:54:49.410Z,1001.66
2019-06-10T10:55:49.179Z,1001.59
2019-06-10T10:56:49.618Z,1001.59
2019-06-10T10:57:49.299Z,1001.56
2019-06-10T10:58:49.227Z,1001.69
2019-06-10T10:59:47.910Z,1001.65
2019-06-10T11:00:50.366Z,1001.68
2019-06-10T11:01:49.430Z,1001.71
2019-06-10T11:02:50.681Z,1001.59
2019-06-10T11:03:49.730Z,1001.51
2019-06-10T11:04:48.005Z,1001.49
2019-06-10T11:05:49.917Z,1001.43
2019-06-10T11:06:47.939Z,1001.35
2019-06-10T11:07:47.828Z,1001.37
2019-06-10T11:08:48.305Z,1001.41
2019-06-10T11:09:48.580Z,1001.29
2019-06-10T11:10:49.506Z,1001.28
2019-06-10T11:11:48.864Z,1001.32
2019-06-10T11:12:49.010Z,1001.33
2019-06-10T11:13:47.785Z,1001.35
2019-06-10T11:14:47.743Z,1001.30
2019-06-10T11:15:49.025Z,1001.31
2019-06-10T11:16:49.395Z,1001.34
2019-06-10T11:17:47.838Z,1001.42
2019-06-10T11:18:47.703Z,1001.40
2019-06-10T11:19:47.784Z,1001.38
2019-06-10T11:20:47.708Z,1001.35
2019-06-10T11:21:47.671Z,1001.42
2019-06-10T11:22:47.700Z,1001.39
2019-06-10T11:23:48.116Z,1001.32
2019-06-10T11:24:48.926Z,1001.35
2019-06-10T11:25:47.823Z,1001.35
2019-06-10T11:26:47.875Z,1001.29
2019-06-10T11:27:48.430Z,1001.30
2019-06-10T11:28:47.610Z,1001.28
2019-06-10T11:29:48.177Z,1001.26
2019-06-10T11:30:47.581Z,1001.22
2019-06-10T11:31:48.471Z,1001.17
2019-06-10T11:32:47.983Z,1001.19
2019-06-10T11:33:48.706Z,1001.19
2019-06-10T11:34:47.732Z,1001.22
2019-06-10T11:35:48.731Z,1001.18
2019-06-10T11:36:48.001Z,1001.19
2019-06-10T11:37:48.875Z,1001.12
2019-06-10T11:38:48.587Z,1001.23
2019-06-10T11:39:48.136Z,1001.19
2019-06-10T11:40:47.460Z,1001.11
2019-06-10T11:41:48.134Z,1001.18
2019-06-10T11:42:48.356Z,1001.17
2019-06-10T11:43:48.388Z,1001.19
2019-06-10T11:44:48.386Z,1001.21
2019-06-10T11:45:51.167Z,1001.26
2019-06-10T11:46:48.634Z,1001.18
2019-06-10T11:47:47.381Z,1001.16
2019-06-10T11:48:47.432Z,1001.26
2019-06-10T11:49:47.370Z,1001.20
2019-06-10T11:50:47.369Z,1001.19
2019-06-10T11:51:47.361Z,1001.17
2019-06-10T11:52:47.563Z,1001.13
2019-06-10T11:53:47.444Z,1001.10
2019-06-10T11:54:55.144Z,1001.18
2019-06-10T11:55:49.506Z,1001.11
2019-06-10T11:56:47.743Z,1001.11
2019-06-10T11:57:47.866Z,1001.13
2019-06-10T11:58:47.906Z,1001.16
2019-06-10T11:59:48.024Z,1001.06
2019-06-10T12:00:48.686Z,1001.03
2019-06-10T12:01:49.267Z,1001.07
2019-06-10T12:02:48.224Z,1001.05
2019-06-10T12:03:48.371Z,1001.07
2019-06-10T12:04:48.352Z,1001.02
2019-06-10T12:05:48.960Z,1001.01